METAR AND TAF INFORMATION

METAR FOR FYWH
ADDS - METARS form results

(2301 UTC 10 December 2019)
Data provider http://aviationweather.gov/metar/data/
 
Forecast for: FYWH (J. G. STRIJDOM , NA)
Text: TAF FYWH 102200Z 1100/1200 24008KT CAVOK
Forecast period: 0000 UTC 11 December 2019 to 0000 UTC 12 December 2019
Forecast type: FROM: standard forecast or significant change
Winds: from the WSW (240 degrees) at 9 MPH (8 knots; 4.1 m/s)
Visibility: 6 or more miles 10+ km)
Ceiling: unknown
Clouds: missing
Weather: NSW  (no significant weather)

 AIRPORT MAP

 RUNWAY INFORMATION

Runway 08 Runway length 15010 ft Runway width 148 ft
Runway elevation 5640 ft Runway displaced threshold 0 ft Runway heading 64
Runway 26 Runway length 15010 ft Runway width 148 ft
Runway elevation 5500 ft Runway displaced threshold 0 ft Runway heading 244
Runway 16 Runway length 5000 ft Runway width 98 ft
Runway elevation 5574 ft Runway displaced threshold 0 ft Runway heading 141
Runway 34 Runway length 5000 ft Runway width 98 ft
Runway elevation 5564 ft Runway displaced threshold 0 ft Runway heading 321

 AIRPORT FREQUENCIES

Type APP Name WINDHOEK A Frequency 120.5 MHZ
Type ATIS Name ATIS Frequency 114.1 MHZ
Type GTE Name APRON Frequency 121.9 MHZ
Type TWR Name WINDHOEK T Frequency 118.1 MHZ

 AIRPORT NEAR NAVIGATION AIDS

Type NDB Name Windhoek Frequency 280 KHZ
Type VOR-DME Name Windhoek Frequency 114500 KHZ